Eos — FAD9780 — position and weather

sailwx.info

Track history (hours):
 
Tides and Currents Weather Stations Pressure Air Temp Water Temp Dewpoint Dewpoint Depression Visibility Wind Speed Wind Dir Waves Ship Positions

Eos

Last reported at 2017-Sep-20 13:20 UTC. Time now 2017-Sep-24 19:38 UTC.
Position N 28°03' W 014°19'.

Length 12 m.

Type: Sailing vessel. MMSI: 227450730.

Date/timePositionNaut miles runAvg speedWind from/ knotsBaromVisibWave heightAir tempDewpointWater temp
2017-Sep-20 13:20N 28°03' W 014°19'2 5.9
2017-Sep-20 12:57N 28°02' W 014°22'13 5.9
2017-Sep-20 10:48N 28°02' W 014°36'2 6.0
2017-Sep-20 10:27N 28°03' W 014°39'3 6.8
2017-Sep-20 09:58N 28°04' W 014°42'3 6.6
2017-Sep-20 09:28N 28°04' W 014°46'3 6.7
2017-Sep-20 08:57N 28°05' W 014°50'3 6.0
2017-Sep-20 08:27N 28°05' W 014°53'3 5.3
2017-Sep-20 07:56N 28°05' W 014°56'3 5.7
2017-Sep-20 07:26N 28°05' W 014°59'3 5.9
2017-Sep-20 06:55N 28°06' W 015°03'3 5.7
2017-Sep-20 06:25N 28°06' W 015°06'3 5.7
2017-Sep-20 05:57N 28°06' W 015°09'3 5.6
2017-Sep-20 05:26N 28°06' W 015°12'3 5.7
2017-Sep-20 04:57N 28°07' W 015°16'3 5.8
2017-Sep-20 04:26N 28°07' W 015°19'3 6.0
2017-Sep-20 04:00N 28°07' W 015°22'3 5.9
2017-Sep-20 03:30N 28°07' W 015°25'1 1.0
2017-Sep-20 02:53N 28°08' W 015°26'0 0.0
2017-Sep-20 02:20N 28°08' W 015°26'0 0.0
2017-Sep-20 01:38N 28°08' W 015°26'0 0.0
2017-Sep-20 01:23N 28°08' W 015°26'0 0.0
2017-Sep-20 00:53N 28°08' W 015°26'0 0.0
2017-Sep-20 00:26N 28°08' W 015°26'0 0.0
2017-Sep-19 23:41N 28°08' W 015°26'0 0.0
2017-Sep-19 23:23N 28°08' W 015°26'0 0.0
2017-Sep-19 22:53N 28°08' W 015°26'0 0.0
2017-Sep-19 22:29N 28°08' W 015°26'0 0.0
2017-Sep-19 21:59N 28°08' W 015°26'0 0.0
2017-Sep-19 21:29N 28°08' W 015°26'0 0.0
2017-Sep-19 20:59N 28°08' W 015°26'0 0.0
2017-Sep-19 20:29N 28°08' W 015°26'0 0.0
2017-Sep-19 19:59N 28°08' W 015°26'0 0.0
2017-Sep-19 19:29N 28°08' W 015°26'0 0.0
2017-Sep-19 18:59N 28°08' W 015°26'0 0.0
2017-Sep-19 18:29N 28°08' W 015°26'0 0.0
2017-Sep-19 17:59N 28°08' W 015°26'0 0.0
2017-Sep-19 17:29N 28°08' W 015°26'0 0.5
2017-Sep-19 17:00N 28°08' W 015°25'0 0.4
2017-Sep-19 16:28N 28°08' W 015°26'1 2.9
2017-Sep-19 16:00N 28°08' W 015°24'3 5.4
2017-Sep-19 15:30N 28°10' W 015°24'3 5.7
2017-Sep-19 15:00N 28°12' W 015°27'3 5.6
2017-Sep-19 14:30N 28°13' W 015°30'3 5.6
2017-Sep-19 14:00N 28°14' W 015°32'3 5.4
2017-Sep-19 13:30N 28°15' W 015°35'3 5.2
2017-Sep-19 13:00N 28°16' W 015°38'2 5.0
2017-Sep-19 12:30N 28°16' W 015°41'3 5.3
2017-Sep-19 12:00N 28°17' W 015°44'3 5.5
2017-Sep-19 11:30N 28°18' W 015°47'3 5.8
2017-Sep-19 11:00N 28°19' W 015°50'3 5.8
2017-Sep-19 10:27N 28°20' W 015°53'3 6.0
2017-Sep-19 09:58N 28°21' W 015°56'3 6.2
2017-Sep-19 09:27N 28°22' W 015°60'3 5.9
2017-Sep-19 08:59N 28°23' W 016°03'3 5.8
2017-Sep-19 08:28N 28°24' W 016°06'4 5.7
2017-Sep-19 07:44N 28°26' W 016°10'2 5.8
2017-Sep-19 07:25N 28°26' W 016°12'3 5.2
2017-Sep-19 06:56N 28°27' W 016°15'1 1.2
2017-Sep-19 06:15N 28°28' W 016°15'0 0.0
2017-Sep-19 00:36N 28°28' W 016°15'0 0.0
2017-Sep-18 09:57N 28°28' W 016°15'0 0.0
2017-Sep-18 08:09N 28°28' W 016°15'0 0.0
2017-Sep-18 07:45N 28°28' W 016°15'  
2017-Sep-15 00:25N 28°28' W 016°15'  
Track history (hours):
 
Tides and Currents Weather Stations Pressure Air Temp Water Temp Dewpoint Dewpoint Depression Visibility Wind Speed Wind Dir Waves Ship Positions

Eos

Last reported at 2017-Sep-20 13:20 UTC. Time now 2017-Sep-24 19:39 UTC.
Position N 28°03' W 014°19'.

Length 12 m.

Type: Sailing vessel. MMSI: 227450730.

Date/timePositionNaut miles runAvg speedWind from/ knotsBaromVisibWave heightAir tempDewpointWater temp
2017-Sep-20 13:20N 28°03' W 014°19'2 5.9
2017-Sep-20 12:57N 28°02' W 014°22'13 5.9
2017-Sep-20 10:48N 28°02' W 014°36'2 6.0
2017-Sep-20 10:27N 28°03' W 014°39'3 6.8
2017-Sep-20 09:58N 28°04' W 014°42'3 6.6
2017-Sep-20 09:28N 28°04' W 014°46'3 6.7
2017-Sep-20 08:57N 28°05' W 014°50'3 6.0
2017-Sep-20 08:27N 28°05' W 014°53'3 5.3
2017-Sep-20 07:56N 28°05' W 014°56'3 5.7
2017-Sep-20 07:26N 28°05' W 014°59'3 5.9
2017-Sep-20 06:55N 28°06' W 015°03'3 5.7
2017-Sep-20 06:25N 28°06' W 015°06'3 5.7
2017-Sep-20 05:57N 28°06' W 015°09'3 5.6
2017-Sep-20 05:26N 28°06' W 015°12'3 5.7
2017-Sep-20 04:57N 28°07' W 015°16'3 5.8
2017-Sep-20 04:26N 28°07' W 015°19'3 6.0
2017-Sep-20 04:00N 28°07' W 015°22'3 5.9
2017-Sep-20 03:30N 28°07' W 015°25'1 1.0
2017-Sep-20 02:53N 28°08' W 015°26'0 0.0
2017-Sep-20 02:20N 28°08' W 015°26'0 0.0
2017-Sep-20 01:38N 28°08' W 015°26'0 0.0
2017-Sep-20 01:23N 28°08' W 015°26'0 0.0
2017-Sep-20 00:53N 28°08' W 015°26'0 0.0
2017-Sep-20 00:26N 28°08' W 015°26'0 0.0
2017-Sep-19 23:41N 28°08' W 015°26'0 0.0
2017-Sep-19 23:23N 28°08' W 015°26'0 0.0
2017-Sep-19 22:53N 28°08' W 015°26'0 0.0
2017-Sep-19 22:29N 28°08' W 015°26'0 0.0
2017-Sep-19 21:59N 28°08' W 015°26'0 0.0
2017-Sep-19 21:29N 28°08' W 015°26'0 0.0
2017-Sep-19 20:59N 28°08' W 015°26'0 0.0
2017-Sep-19 20:29N 28°08' W 015°26'0 0.0
2017-Sep-19 19:59N 28°08' W 015°26'0 0.0
2017-Sep-19 19:29N 28°08' W 015°26'0 0.0
2017-Sep-19 18:59N 28°08' W 015°26'0 0.0
2017-Sep-19 18:29N 28°08' W 015°26'0 0.0
2017-Sep-19 17:59N 28°08' W 015°26'0 0.0
2017-Sep-19 17:29N 28°08' W 015°26'0 0.5
2017-Sep-19 17:00N 28°08' W 015°25'0 0.4
2017-Sep-19 16:28N 28°08' W 015°26'1 2.9
2017-Sep-19 16:00N 28°08' W 015°24'3 5.4
2017-Sep-19 15:30N 28°10' W 015°24'3 5.7
2017-Sep-19 15:00N 28°12' W 015°27'3 5.6
2017-Sep-19 14:30N 28°13' W 015°30'3 5.6
2017-Sep-19 14:00N 28°14' W 015°32'3 5.4
2017-Sep-19 13:30N 28°15' W 015°35'3 5.2
2017-Sep-19 13:00N 28°16' W 015°38'2 5.0
2017-Sep-19 12:30N 28°16' W 015°41'3 5.3
2017-Sep-19 12:00N 28°17' W 015°44'3 5.5
2017-Sep-19 11:30N 28°18' W 015°47'3 5.8
2017-Sep-19 11:00N 28°19' W 015°50'3 5.8
2017-Sep-19 10:27N 28°20' W 015°53'3 6.0
2017-Sep-19 09:58N 28°21' W 015°56'3 6.2
2017-Sep-19 09:27N 28°22' W 015°60'3 5.9
2017-Sep-19 08:59N 28°23' W 016°03'3 5.8
2017-Sep-19 08:28N 28°24' W 016°06'4 5.7
2017-Sep-19 07:44N 28°26' W 016°10'2 5.8
2017-Sep-19 07:25N 28°26' W 016°12'3 5.2
2017-Sep-19 06:56N 28°27' W 016°15'1 1.2
2017-Sep-19 06:15N 28°28' W 016°15'0 0.0
2017-Sep-19 00:36N 28°28' W 016°15'0 0.0
2017-Sep-18 09:57N 28°28' W 016°15'0 0.0
2017-Sep-18 08:09N 28°28' W 016°15'0 0.0
2017-Sep-18 07:45N 28°28' W 016°15'  
2017-Sep-15 00:25N 28°28' W 016°15'  

Dump ship's entire track history